Terminal Aerodrome Forecast
Issued by NWS

Home | Current Version | Previous Version | Text Only | Print | Product List | Glossary On
Versions: 1 2 3 4 5 6 7 8 9 10 11 12 13 14 15 16 17 18 19 20 21 22
000
FTUS43 KGRB 230113 AAA
TAFAUW
TAF AMD
KAUW 230113Z 2301/2324 30003KT 5SM BR OVC005
      TEMPO 2301/2304 1SM -DZ BR OVC003
     FM230400 VRB03KT 1/2SM FG OVC002
     FM231500 32004KT 1SM BR OVC003
     FM231700 33005KT 3SM BR OVC006
     FM232000 31005KT 4SM BR OVC010=

USA.gov is the U.S. government's official web portal to all federal, state and local government web resources and services.